Time;durP1;ratioP1;P1;durP2;ratioP2;P2;SDS_P1;SDS_P2;PMS_P1;PMS_P2;Temp;Humidity;BMP_temperature;BMP_pressure;BME280_temperature;BME280_humidity;BME280_pressure;Samples;Min_cycle;Max_cycle;Signal;HPM_P1;HPM_P2
2024/04/04 00:00:07;;;;;;;;;;;;;;;;;;5096284;28;20283;-70
2024/04/04 00:02:33;;;;;;;;;;;;;;;;;;5096430;28;20426;-70
2024/04/04 00:04:59;;;;;;;;;;;;;;;;;;5096418;28;19908;-70
2024/04/04 00:07:25;;;;;;;;;;;;;;;;;;5095905;28;19923;-69
2024/04/04 00:09:51;;;;;;;;;;;;;;;;;;5078241;28;19908;-69
2024/04/04 00:12:19;;;;;;;;;;;;;;;;;;5095946;28;19908;-69
2024/04/04 00:14:45;;;;;;;;;;;;;;;;;;5096241;28;19909;-69
2024/04/04 00:17:11;;;;;;;;;;;;;;;;;;5078071;28;19915;-69
2024/04/04 00:19:37;;;;;;;;;;;;;;;;;;5095679;28;20395;-68
2024/04/04 00:22:03;;;;;;;;;;;;;;;;;;5096082;28;20379;-68
2024/04/04 00:24:29;;;;;;;;;;;;;;;;;;5077753;28;19999;-69
2024/04/04 00:26:55;;;;;;;;;;;;;;;;;;5095317;28;19924;-69
2024/04/04 00:29:21;;;;;;;;;;;;;;;;;;5077842;28;19915;-69
2024/04/04 00:31:47;;;;;;;;;;;;;;;;;;5095920;28;19947;-69
2024/04/04 00:34:12;;;;;;;;;;;;;;;;;;5095884;28;19915;-69
2024/04/04 00:36:38;;;;;;;;;;;;;;;;;;5095814;28;20292;-69
2024/04/04 00:39:04;;;;;;;;;;;;;;;;;;5095790;28;19908;-69
2024/04/04 00:41:30;;;;;;;;;;;;;;;;;;5095391;28;19908;-69
2024/04/04 00:43:56;;;;;;;;;;;;;;;;;;5096079;28;20284;-69
2024/04/04 00:46:22;;;;;;;;;;;;;;;;;;5095632;28;19912;-69
2024/04/04 00:48:48;;;;;;;;;;;;;;;;;;5095321;28;19916;-69
2024/04/04 00:51:14;;;;;;;;;;;;;;;;;;5095479;28;19915;-69
2024/04/04 00:53:40;;;;;;;;;;;;;;;;;;5077363;28;19965;-69
2024/04/04 00:56:06;;;;;;;;;;;;;;;;;;5095183;28;20386;-69
2024/04/04 00:58:32;;;;;;;;;;;;;;;;;;5095859;28;20241;-69
2024/04/04 01:00:58;;;;;;;;;;;;;;;;;;5095403;28;19987;-69
2024/04/04 01:03:24;;;;;;;;;;;;;;;;;;5094937;28;20265;-69
2024/04/04 01:05:50;;;;;;;;;;;;;;;;;;5095252;28;19908;-69
2024/04/04 01:08:16;;;;;;;;;;;;;;;;;;5095176;28;19962;-69
2024/04/04 01:10:42;;;;;;;;;;;;;;;;;;5094810;28;20352;-69
2024/04/04 01:13:08;;;;;;;;;;;;;;;;;;5095710;28;20388;-69
2024/04/04 01:15:34;;;;;;;;;;;;;;;;;;5094688;28;19915;-69
2024/04/04 01:18:01;;;;;;;;;;;;;;;;;;5095085;28;19908;-69
2024/04/04 01:20:27;;;;;;;;;;;;;;;;;;5076875;28;20261;-69
2024/04/04 01:22:53;;;;;;;;;;;;;;;;;;5076298;28;19909;-68
2024/04/04 01:25:18;;;;;;;;;;;;;;;;;;5076704;28;19908;-69
2024/04/04 01:27:49;;;;;;;;;;;;;;;;;;5094643;28;19927;-69
2024/04/04 01:30:15;;;;;;;;;;;;;;;;;;5094423;28;19940;-69
2024/04/04 01:32:41;;;;;;;;;;;;;;;;;;5076560;28;19912;-69
2024/04/04 01:35:07;;;;;;;;;;;;;;;;;;5094720;28;19915;-69
2024/04/04 01:37:33;;;;;;;;;;;;;;;;;;5093780;28;19998;-69
2024/04/04 01:39:59;;;;;;;;;;;;;;;;;;5094816;28;20421;-69
2024/04/04 01:42:25;;;;;;;;;;;;;;;;;;5094639;28;20363;-69
2024/04/04 01:44:50;;;;;;;;;;;;;;;;;;5094391;28;20360;-69
2024/04/04 01:47:16;;;;;;;;;;;;;;;;;;5094421;28;19974;-69
2024/04/04 01:49:42;;;;;;;;;;;;;;;;;;5094414;28;19991;-69
2024/04/04 01:52:08;;;;;;;;;;;;;;;;;;5094006;28;19909;-69
2024/04/04 01:54:34;;;;;;;;;;;;;;;;;;5094352;28;19915;-69
2024/04/04 01:57:00;;;;;;;;;;;;;;;;;;5094368;28;19912;-69
2024/04/04 01:59:26;;;;;;;;;;;;;;;;;;5093897;28;19908;-69
2024/04/04 02:01:52;;;;;;;;;;;;;;;;;;5076112;28;19927;-70
2024/04/04 02:04:18;;;;;;;;;;;;;;;;;;5094232;28;19931;-69
2024/04/04 02:06:44;;;;;;;;;;;;;;;;;;5093761;28;19999;-69
2024/04/04 02:09:10;;;;;;;;;;;;;;;;;;5094168;28;19995;-69
2024/04/04 02:11:36;;;;;;;;;;;;;;;;;;5094105;28;19908;-69
2024/04/04 02:14:02;;;;;;;;;;;;;;;;;;5093657;28;19920;-70
2024/04/04 02:16:29;;;;;;;;;;;;;;;;;;5075998;28;19912;-70
2024/04/04 02:18:55;;;;;;;;;;;;;;;;;;5093716;28;20418;-69
2024/04/04 02:21:21;;;;;;;;;;;;;;;;;;5094004;28;19912;-69
2024/04/04 02:23:47;;;;;;;;;;;;;;;;;;5075852;28;19908;-69
2024/04/04 02:26:13;;;;;;;;;;;;;;;;;;5093540;28;20333;-70
2024/04/04 02:28:39;;;;;;;;;;;;;;;;;;5093759;28;19924;-69
2024/04/04 02:31:05;;;;;;;;;;;;;;;;;;5094008;28;19908;-70
2024/04/04 02:33:31;;;;;;;;;;;;;;;;;;5093535;28;19908;-70
2024/04/04 02:35:57;;;;;;;;;;;;;;;;;;5093897;28;19931;-70
2024/04/04 02:38:23;;;;;;;;;;;;;;;;;;5093861;28;19908;-70
2024/04/04 02:40:49;;;;;;;;;;;;;;;;;;5093490;28;20382;-70
2024/04/04 02:43:18;;;;;;;;;;;;;;;;;;5093888;28;19916;-70
2024/04/04 02:45:44;;;;;;;;;;;;;;;;;;5093833;28;19914;-70
2024/04/04 02:48:10;;;;;;;;;;;;;;;;;;5093342;28;19916;-70
2024/04/04 02:50:37;;;;;;;;;;;;;;;;;;5097723;28;19931;-70
2024/04/04 02:53:03;;;;;;;;;;;;;;;;;;5079678;28;20284;-70
2024/04/04 02:55:29;;;;;;;;;;;;;;;;;;5097448;28;19908;-70
2024/04/04 02:57:54;;;;;;;;;;;;;;;;;;5097667;28;19930;-70
2024/04/04 03:00:20;;;;;;;;;;;;;;;;;;5097755;28;19908;-71
2024/04/04 03:02:47;;;;;;;;;;;;;;;;;;5079191;28;19908;-70
2024/04/04 03:05:12;;;;;;;;;;;;;;;;;;5097603;28;19947;-70
2024/04/04 03:07:38;;;;;;;;;;;;;;;;;;5097507;28;19970;-70
2024/04/04 03:10:04;;;;;;;;;;;;;;;;;;5097208;28;19908;-70
2024/04/04 03:12:30;;;;;;;;;;;;;;;;;;5097511;28;19919;-70
2024/04/04 03:14:56;;;;;;;;;;;;;;;;;;5097406;28;19908;-70
2024/04/04 03:17:22;;;;;;;;;;;;;;;;;;5096939;28;19919;-69
2024/04/04 03:19:48;;;;;;;;;;;;;;;;;;5097363;28;19908;-69
2024/04/04 03:22:14;;;;;;;;;;;;;;;;;;5097146;28;19908;-70
2024/04/04 03:24:40;;;;;;;;;;;;;;;;;;5097261;28;19915;-69
2024/04/04 03:27:06;;;;;;;;;;;;;;;;;;5096925;28;20007;-70
2024/04/04 03:29:32;;;;;;;;;;;;;;;;;;5096979;28;19916;-70
2024/04/04 03:31:58;;;;;;;;;;;;;;;;;;5097141;28;19908;-70
2024/04/04 03:34:24;;;;;;;;;;;;;;;;;;5097335;28;19914;-70
2024/04/04 03:36:50;;;;;;;;;;;;;;;;;;5096557;28;19909;-70
2024/04/04 03:39:16;;;;;;;;;;;;;;;;;;5096931;28;19908;-70
2024/04/04 03:41:42;;;;;;;;;;;;;;;;;;5096917;28;19919;-70
2024/04/04 03:44:08;;;;;;;;;;;;;;;;;;5078292;28;19908;-70
2024/04/04 03:46:34;;;;;;;;;;;;;;;;;;5096858;28;19909;-71
2024/04/04 03:49:00;;;;;;;;;;;;;;;;;;5078549;28;20387;-70
2024/04/04 03:51:26;;;;;;;;;;;;;;;;;;5096339;28;20360;-70
2024/04/04 03:53:52;;;;;;;;;;;;;;;;;;5097035;28;19912;-70
2024/04/04 03:56:18;;;;;;;;;;;;;;;;;;5096656;28;19915;-70
2024/04/04 03:58:44;;;;;;;;;;;;;;;;;;5096175;28;19946;-70
2024/04/04 04:01:10;;;;;;;;;;;;;;;;;;5077983;28;19908;-70
2024/04/04 04:03:36;;;;;;;;;;;;;;;;;;5096149;28;19969;-70
2024/04/04 04:06:02;;;;;;;;;;;;;;;;;;5076933;28;19981;-70
2024/04/04 04:08:28;;;;;;;;;;;;;;;;;;5095508;28;20285;-70
2024/04/04 04:10:54;;;;;;;;;;;;;;;;;;5096146;28;20366;-70
2024/04/04 04:13:20;;;;;;;;;;;;;;;;;;5095636;28;19931;-70
2024/04/04 04:15:46;;;;;;;;;;;;;;;;;;5096269;28;19908;-70
2024/04/04 04:18:12;;;;;;;;;;;;;;;;;;5095965;28;20002;-70
2024/04/04 04:23:22;;;;;;;;;;;;;;;;;;5096158;28;19919;-70
2024/04/04 04:25:48;;;;;;;;;;;;;;;;;;5095871;28;19912;-70
2024/04/04 04:28:14;;;;;;;;;;;;;;;;;;5095641;28;19946;-69
2024/04/04 04:30:40;;;;;;;;;;;;;;;;;;5095193;28;19931;-70
2024/04/04 04:33:07;;;;;;;;;;;;;;;;;;5093678;28;19974;-70
2024/04/04 04:35:33;;;;;;;;;;;;;;;;;;5095158;28;19915;-70
2024/04/04 04:37:58;;;;;;;;;;;;;;;;;;5094838;28;19908;-70
2024/04/04 04:40:24;;;;;;;;;;;;;;;;;;5094748;28;19908;-70
2024/04/04 04:42:50;;;;;;;;;;;;;;;;;;5095110;28;19915;-70
2024/04/04 04:45:16;;;;;;;;;;;;;;;;;;5094367;28;19915;-70
2024/04/04 04:47:42;;;;;;;;;;;;;;;;;;5093104;28;20384;-69
2024/04/04 04:50:08;;;;;;;;;;;;;;;;;;5093609;28;19908;-70
2024/04/04 04:52:34;;;;;;;;;;;;;;;;;;5094351;28;19908;-69
2024/04/04 04:55:00;;;;;;;;;;;;;;;;;;5094331;28;19908;-70
2024/04/04 04:57:26;;;;;;;;;;;;;;;;;;5094640;28;19961;-69
2024/04/04 04:59:52;;;;;;;;;;;;;;;;;;5094781;28;19919;-70
2024/04/04 05:02:18;;;;;;;;;;;;;;;;;;5094909;28;19908;-70
2024/04/04 05:04:44;;;;;;;;;;;;;;;;;;5095572;28;19915;-70
2024/04/04 05:07:10;;;;;;;;;;;;;;;;;;5095117;28;19912;-70
2024/04/04 05:09:36;;;;;;;;;;;;;;;;;;5076601;28;19958;-70
2024/04/04 05:12:03;;;;;;;;;;;;;;;;;;5094264;28;19916;-69
2024/04/04 05:14:29;;;;;;;;;;;;;;;;;;5094974;28;20372;-70
2024/04/04 05:16:55;;;;;;;;;;;;;;;;;;5094602;28;19978;-70
2024/04/04 05:19:21;;;;;;;;;;;;;;;;;;5091519;28;19956;-68
2024/04/04 05:21:47;;;;;;;;;;;;;;;;;;5093838;28;19908;-68
2024/04/04 05:24:13;;;;;;;;;;;;;;;;;;5094372;28;20409;-67
2024/04/04 05:26:39;;;;;;;;;;;;;;;;;;5091902;28;20382;-68
2024/04/04 05:29:07;;;;;;;;;;;;;;;;;;5092666;28;19920;-68
2024/04/04 05:31:33;;;;;;;;;;;;;;;;;;5094007;28;20288;-68
2024/04/04 05:33:59;;;;;;;;;;;;;;;;;;5093862;28;19908;-69
2024/04/04 05:36:25;;;;;;;;;;;;;;;;;;5093225;28;19932;-67
2024/04/04 05:38:51;;;;;;;;;;;;;;;;;;5094062;28;19993;-68
2024/04/04 05:41:17;;;;;;;;;;;;;;;;;;5093162;28;19916;-67
2024/04/04 05:43:43;;;;;;;;;;;;;;;;;;5092736;28;19919;-69
2024/04/04 05:46:09;;;;;;;;;;;;;;;;;;5093636;28;19919;-68
2024/04/04 05:48:34;;;;;;;;;;;;;;;;;;5073533;28;19947;-67
2024/04/04 05:51:03;;;;;;;;;;;;;;;;;;5093160;28;19962;-67
2024/04/04 05:53:30;;;;;;;;;;;;;;;;;;5093293;28;19958;-67
2024/04/04 05:55:56;;;;;;;;;;;;;;;;;;5073500;28;19916;-67
2024/04/04 05:58:22;;;;;;;;;;;;;;;;;;5090493;28;20656;-67
2024/04/04 06:00:47;;;;;;;;;;;;;;;;;;5092745;28;19920;-67
2024/04/04 06:03:13;;;;;;;;;;;;;;;;;;5064704;28;19951;-67
2024/04/04 06:05:39;;;;;;;;;;;;;;;;;;5092787;28;19954;-67
2024/04/04 06:08:05;;;;;;;;;;;;;;;;;;5092805;28;19920;-67
2024/04/04 06:10:31;;;;;;;;;;;;;;;;;;5093340;28;19912;-66
2024/04/04 06:12:57;;;;;;;;;;;;;;;;;;5091344;28;19914;-68
2024/04/04 06:15:23;;;;;;;;;;;;;;;;;;5094212;28;19912;-68
2024/04/04 06:17:49;;;;;;;;;;;;;;;;;;5090773;28;19958;-67
2024/04/04 06:20:15;;;;;;;;;;;;;;;;;;5089271;28;19966;-68
2024/04/04 06:22:41;;;;;;;;;;;;;;;;;;5091292;28;19908;-67
2024/04/04 06:25:07;;;;;;;;;;;;;;;;;;5090912;28;20474;-68
2024/04/04 06:27:33;;;;;;;;;;;;;;;;;;5090811;28;19977;-70
2024/04/04 06:29:59;;;;;;;;;;;;;;;;;;5090633;28;19916;-68
2024/04/04 06:32:25;;;;;;;;;;;;;;;;;;5090587;28;19999;-68
2024/04/04 06:34:51;;;;;;;;;;;;;;;;;;5090542;28;19965;-67
2024/04/04 06:37:18;;;;;;;;;;;;;;;;;;5090842;28;19912;-66
2024/04/04 06:39:44;;;;;;;;;;;;;;;;;;5090333;28;20330;-67
2024/04/04 06:42:10;;;;;;;;;;;;;;;;;;5091955;28;19923;-67
2024/04/04 06:44:36;;;;;;;;;;;;;;;;;;5074229;28;20014;-66
2024/04/04 06:47:02;;;;;;;;;;;;;;;;;;5092644;28;20330;-66
2024/04/04 06:49:28;;;;;;;;;;;;;;;;;;5093028;28;19934;-67
2024/04/04 06:51:55;;;;;;;;;;;;;;;;;;5074553;28;19970;-66
2024/04/04 06:54:21;;;;;;;;;;;;;;;;;;5092607;28;19912;-66
2024/04/04 06:56:47;;;;;;;;;;;;;;;;;;5085156;28;19917;-68
2024/04/04 06:59:13;;;;;;;;;;;;;;;;;;5087819;28;19916;-68
2024/04/04 07:01:39;;;;;;;;;;;;;;;;;;5088606;28;19919;-68
2024/04/04 07:04:07;;;;;;;;;;;;;;;;;;5090827;28;19908;-68
2024/04/04 07:06:33;;;;;;;;;;;;;;;;;;5090958;28;19912;-67
2024/04/04 07:08:59;;;;;;;;;;;;;;;;;;5086440;28;20069;-67
2024/04/04 07:11:26;;;;;;;;;;;;;;;;;;5062149;28;20391;-68
2024/04/04 07:13:52;;;;;;;;;;;;;;;;;;5090938;28;20372;-68
2024/04/04 07:16:18;;;;;;;;;;;;;;;;;;5072073;28;19920;-67
2024/04/04 07:18:44;;;;;;;;;;;;;;;;;;5088692;28;19995;-68
2024/04/04 07:21:10;;;;;;;;;;;;;;;;;;5084823;28;20280;-67
2024/04/04 07:23:36;;;;;;;;;;;;;;;;;;5081550;28;19919;-66
2024/04/04 07:26:02;;;;;;;;;;;;;;;;;;5087195;28;19916;-66
2024/04/04 07:28:28;;;;;;;;;;;;;;;;;;5087464;28;19920;-65
2024/04/04 07:30:54;;;;;;;;;;;;;;;;;;5091204;28;19908;-66
2024/04/04 07:33:20;;;;;;;;;;;;;;;;;;5092187;28;20355;-66
2024/04/04 07:35:46;;;;;;;;;;;;;;;;;;5094062;28;19927;-66
2024/04/04 07:38:12;;;;;;;;;;;;;;;;;;5095521;28;19981;-64
2024/04/04 07:43:18;;;;;;;;;;;;;;;;;;5088239;27;19927;-65
2024/04/04 07:46:36;;;;;;;;;;;;;;;;;;4768567;27;10331182;-64
2024/04/04 07:49:03;;;;;;;;;;;;;;;;;;5112982;28;19912;-65
2024/04/04 07:51:29;;;;;;;;;;;;;;;;;;5130129;28;19912;-64
2024/04/04 07:53:55;;;;;;;;;;;;;;;;;;5130903;28;19915;-65
2024/04/04 07:56:21;;;;;;;;;;;;;;;;;;5128693;28;19918;-67
2024/04/04 07:58:47;;;;;;;;;;;;;;;;;;5124367;28;19999;-66
2024/04/04 08:01:14;;;;;;;;;;;;;;;;;;5108216;28;19908;-65
2024/04/04 08:03:42;;;;;;;;;;;;;;;;;;5127944;28;19912;-69
2024/04/04 08:07:41;;;;;;;;;;;;;;;;;;5108970;27;19923;-69
2024/04/04 08:10:31;;;;;;;;;;;;;;;;;;5112936;27;19920;-67
2024/04/04 08:12:57;;;;;;;;;;;;;;;;;;5113009;28;20599;-66
2024/04/04 08:15:23;;;;;;;;;;;;;;;;;;5111690;28;20070;-67
2024/04/04 08:19:15;;;;;;;;;;;;;;;;;;5106580;27;19930;-68
2024/04/04 08:25:40;;;;;;;;;;;;;;;;;;5112402;27;19923;-69
2024/04/04 08:28:06;;;;;;;;;;;;;;;;;;5113737;28;20339;-69
2024/04/04 08:30:32;;;;;;;;;;;;;;;;;;5116185;28;19919;-69
2024/04/04 08:32:58;;;;;;;;;;;;;;;;;;5127932;28;20056;-68
2024/04/04 08:35:24;;;;;;;;;;;;;;;;;;5117846;27;19923;-69
2024/04/04 08:37:49;;;;;;;;;;;;;;;;;;5111731;28;19969;-70
2024/04/04 08:40:15;;;;;;;;;;;;;;;;;;5116994;28;20002;-68
2024/04/04 08:42:41;;;;;;;;;;;;;;;;;;5115398;27;19934;-68
2024/04/04 08:48:20;;;;;;;;;;;;;;;;;;5110738;27;19916;-70
2024/04/04 08:53:44;;;;;;;;;;;;;;;;;;5088756;27;19917;-69
2024/04/04 08:56:10;;;;;;;;;;;;;;;;;;5087531;28;19942;-69
2024/04/04 09:00:11;;;;;;;;;;;;;;;;;;5090002;27;19912;-68
2024/04/04 09:03:22;;;;;;;;;;;;;;;;;;5092266;27;20339;-68
2024/04/04 09:05:48;;;;;;;;;;;;;;;;;;5088939;28;19920;-68
2024/04/04 09:09:41;;;;;;;;;;;;;;;;;;5103656;27;20010;-69
2024/04/04 09:12:07;;;;;;;;;;;;;;;;;;5095719;28;19999;-66
2024/04/04 09:19:50;;;;;;;;;;;;;;;;;;5161481;27;19921;-66
2024/04/04 09:29:03;;;;;;;;;;;;;;;;;;5101892;27;19916;-64
2024/04/04 09:31:36;;;;;;;;;;;;;;;;;;5113800;28;19912;-66
2024/04/04 09:34:02;;;;;;;;;;;;;;;;;;5113145;28;19912;-66
2024/04/04 09:36:29;;;;;;;;;;;;;;;;;;5126005;28;19984;-68
2024/04/04 09:38:55;;;;;;;;;;;;;;;;;;5116027;27;19930;-69
2024/04/04 09:41:21;;;;;;;;;;;;;;;;;;5107594;28;19912;-67
2024/04/04 09:45:55;;;;;;;;;;;;;;;;;;5113915;27;19926;-65
2024/04/04 09:48:22;;;;;;;;;;;;;;;;;;5122502;28;20002;-66
2024/04/04 09:52:22;;;;;;;;;;;;;;;;;;5191218;27;20290;-66
2024/04/04 09:56:54;;;;;;;;;;;;;;;;;;5100243;27;20292;-67
2024/04/04 10:03:11;;;;;;;;;;;;;;;;;;5110137;27;20277;-66
2024/04/04 10:05:38;;;;;;;;;;;;;;;;;;5110903;28;19998;-64
2024/04/04 10:08:04;;;;;;;;;;;;;;;;;;5120914;27;20280;-66
2024/04/04 10:10:29;;;;;;;;;;;;;;;;;;5115963;28;19915;-67
2024/04/04 10:17:07;;;;;;;;;;;;;;;;;;5136689;27;19922;-66
2024/04/04 10:19:33;;;;;;;;;;;;;;;;;;5119873;28;19995;-66
2024/04/04 10:24:24;;;;;;;;;;;;;;;;;;5116976;27;19924;-67
2024/04/04 10:26:50;;;;;;;;;;;;;;;;;;5109044;28;19923;-67
2024/04/04 10:30:42;;;;;;;;;;;;;;;;;;5088413;28;20573;-68
2024/04/04 10:33:08;;;;;;;;;;;;;;;;;;5088112;28;19913;-67
2024/04/04 10:35:34;;;;;;;;;;;;;;;;;;5087308;28;20057;-68
2024/04/04 10:38:00;;;;;;;;;;;;;;;;;;5086985;28;19908;-68
2024/04/04 10:40:26;;;;;;;;;;;;;;;;;;5086466;28;19954;-67
2024/04/04 10:42:52;;;;;;;;;;;;;;;;;;5084717;28;19912;-67
2024/04/04 10:45:34;;;;;;;;;;;;;;;;;;5107401;27;19923;-66
2024/04/04 10:47:59;;;;;;;;;;;;;;;;;;5123573;28;19912;-67
2024/04/04 10:50:25;;;;;;;;;;;;;;;;;;5129451;28;19961;-67
2024/04/04 10:52:51;;;;;;;;;;;;;;;;;;5129571;27;20350;-67
2024/04/04 11:01:04;;;;;;;;;;;;;;;;;;5134726;27;19928;-67
2024/04/04 11:03:29;;;;;;;;;;;;;;;;;;5149599;27;19915;-68
2024/04/04 11:05:55;;;;;;;;;;;;;;;;;;5150986;27;20204;-68
2024/04/04 11:08:21;;;;;;;;;;;;;;;;;;5143233;27;19911;-69
2024/04/04 11:10:47;;;;;;;;;;;;;;;;;;5128857;28;19907;-70
2024/04/04 11:13:13;;;;;;;;;;;;;;;;;;5123243;27;20022;-71
2024/04/04 11:15:39;;;;;;;;;;;;;;;;;;5145687;27;19908;-68
2024/04/04 11:18:05;;;;;;;;;;;;;;;;;;5144437;27;19961;-69
2024/04/04 11:23:06;;;;;;;;;;;;;;;;;;5113193;27;19916;-71
2024/04/04 11:25:32;;;;;;;;;;;;;;;;;;5111261;28;19938;-69
2024/04/04 11:27:58;;;;;;;;;;;;;;;;;;5120598;28;19912;-70
2024/04/04 11:30:27;;;;;;;;;;;;;;;;;;5118468;27;19915;-69
2024/04/04 11:32:53;;;;;;;;;;;;;;;;;;5116907;28;19915;-71
2024/04/04 11:35:19;;;;;;;;;;;;;;;;;;5125047;27;19978;-69
2024/04/04 11:37:45;;;;;;;;;;;;;;;;;;5130081;27;20331;-68
2024/04/04 11:40:12;;;;;;;;;;;;;;;;;;5125123;27;19912;-69
2024/04/04 11:42:38;;;;;;;;;;;;;;;;;;5120301;27;19935;-72
2024/04/04 11:45:05;;;;;;;;;;;;;;;;;;5107311;28;19912;-69
2024/04/04 11:47:31;;;;;;;;;;;;;;;;;;5128060;28;19907;-70
2024/04/04 11:49:57;;;;;;;;;;;;;;;;;;5129607;28;19907;-69
2024/04/04 11:52:23;;;;;;;;;;;;;;;;;;5130698;27;19915;-70
2024/04/04 11:54:50;;;;;;;;;;;;;;;;;;5131095;28;19923;-68
2024/04/04 11:57:16;;;;;;;;;;;;;;;;;;5117590;28;19912;-69
2024/04/04 11:59:42;;;;;;;;;;;;;;;;;;5131035;28;19908;-69
2024/04/04 12:02:08;;;;;;;;;;;;;;;;;;5130960;27;20378;-69
2024/04/04 12:04:34;;;;;;;;;;;;;;;;;;5125213;27;19962;-67
2024/04/04 12:07:00;;;;;;;;;;;;;;;;;;5122865;28;20352;-67
2024/04/04 12:09:26;;;;;;;;;;;;;;;;;;5131003;27;19953;-69
2024/04/04 12:11:52;;;;;;;;;;;;;;;;;;5109906;28;19912;-69
2024/04/04 12:14:18;;;;;;;;;;;;;;;;;;5113505;28;19959;-69
2024/04/04 12:16:50;;;;;;;;;;;;;;;;;;5118726;27;19912;-71
2024/04/04 12:19:26;;;;;;;;;;;;;;;;;;5113805;27;19916;-69
2024/04/04 12:21:52;;;;;;;;;;;;;;;;;;5118298;28;19930;-69
2024/04/04 12:24:18;;;;;;;;;;;;;;;;;;5129017;28;19908;-71
2024/04/04 12:26:44;;;;;;;;;;;;;;;;;;5123328;27;20379;-72
2024/04/04 12:29:11;;;;;;;;;;;;;;;;;;5114803;27;19968;-69
2024/04/04 12:31:37;;;;;;;;;;;;;;;;;;5111938;28;19912;-70
2024/04/04 12:34:03;;;;;;;;;;;;;;;;;;5098164;28;19912;-70
2024/04/04 12:36:29;;;;;;;;;;;;;;;;;;5100461;28;20372;-70
2024/04/04 12:38:55;;;;;;;;;;;;;;;;;;5105634;28;19918;-71
2024/04/04 12:41:21;;;;;;;;;;;;;;;;;;5106407;28;19916;-71
2024/04/04 12:43:47;;;;;;;;;;;;;;;;;;5112999;28;20422;-70
2024/04/04 12:46:13;;;;;;;;;;;;;;;;;;5100434;28;19916;-70
2024/04/04 12:48:41;;;;;;;;;;;;;;;;;;5107303;28;19918;-70
2024/04/04 12:51:07;;;;;;;;;;;;;;;;;;5092325;28;19915;-71
2024/04/04 12:53:33;;;;;;;;;;;;;;;;;;5100292;28;19912;-73
2024/04/04 12:55:59;;;;;;;;;;;;;;;;;;5113869;28;20010;-74
2024/04/04 12:58:25;;;;;;;;;;;;;;;;;;5113125;28;19912;-75
2024/04/04 13:00:58;;;;;;;;;;;;;;;;;;5114120;28;19908;-74
2024/04/04 13:03:25;;;;;;;;;;;;;;;;;;5114505;27;20379;-75
2024/04/04 13:05:51;;;;;;;;;;;;;;;;;;5114559;28;19922;-75
2024/04/04 13:08:16;;;;;;;;;;;;;;;;;;5115509;27;19998;-75
2024/04/04 13:10:43;;;;;;;;;;;;;;;;;;5116386;28;19908;-75
2024/04/04 13:13:09;;;;;;;;;;;;;;;;;;5114611;28;19911;-75
2024/04/04 13:15:35;;;;;;;;;;;;;;;;;;5115020;28;19908;-74
2024/04/04 13:18:01;;;;;;;;;;;;;;;;;;5116272;28;19915;-74
2024/04/04 13:20:27;;;;;;;;;;;;;;;;;;5115792;28;19908;-74
2024/04/04 13:22:53;;;;;;;;;;;;;;;;;;5115849;28;19972;-74
2024/04/04 13:25:19;;;;;;;;;;;;;;;;;;5116003;28;19922;-74
2024/04/04 13:27:45;;;;;;;;;;;;;;;;;;5115666;28;19914;-74
2024/04/04 13:30:11;;;;;;;;;;;;;;;;;;5116010;28;20006;-75
2024/04/04 13:32:37;;;;;;;;;;;;;;;;;;5115899;28;19961;-74
2024/04/04 13:35:03;;;;;;;;;;;;;;;;;;5115410;27;20439;-74
2024/04/04 13:37:29;;;;;;;;;;;;;;;;;;5115879;27;20380;-74
2024/04/04 13:39:55;;;;;;;;;;;;;;;;;;5115670;28;20306;-74
2024/04/04 13:42:21;;;;;;;;;;;;;;;;;;5115210;28;20008;-74
2024/04/04 13:44:47;;;;;;;;;;;;;;;;;;5114568;28;19943;-74
2024/04/04 13:47:14;;;;;;;;;;;;;;;;;;5115770;28;20328;-74
2024/04/04 13:49:40;;;;;;;;;;;;;;;;;;5115190;28;19908;-74
2024/04/04 13:52:06;;;;;;;;;;;;;;;;;;5115511;28;19908;-74
2024/04/04 13:54:32;;;;;;;;;;;;;;;;;;5115504;28;20372;-74
2024/04/04 13:56:59;;;;;;;;;;;;;;;;;;5115041;28;20310;-73
2024/04/04 13:59:25;;;;;;;;;;;;;;;;;;5115364;28;19908;-75
2024/04/04 14:01:51;;;;;;;;;;;;;;;;;;5115490;28;19972;-74
2024/04/04 14:04:17;;;;;;;;;;;;;;;;;;5114956;28;19908;-73
2024/04/04 14:06:43;;;;;;;;;;;;;;;;;;5115013;28;19908;-74
2024/04/04 14:09:09;;;;;;;;;;;;;;;;;;5115015;28;19916;-75
2024/04/04 14:11:35;;;;;;;;;;;;;;;;;;5114724;28;19912;-75
2024/04/04 14:14:01;;;;;;;;;;;;;;;;;;5115173;28;20003;-74
2024/04/04 14:16:27;;;;;;;;;;;;;;;;;;5114666;28;19907;-74
2024/04/04 14:18:53;;;;;;;;;;;;;;;;;;5114923;28;19934;-75
2024/04/04 14:21:18;;;;;;;;;;;;;;;;;;5114884;28;19920;-74
2024/04/04 14:23:44;;;;;;;;;;;;;;;;;;5114524;28;19943;-75
2024/04/04 14:26:12;;;;;;;;;;;;;;;;;;5114846;28;19915;-75
2024/04/04 14:28:38;;;;;;;;;;;;;;;;;;5114252;28;19915;-75
2024/04/04 14:31:04;;;;;;;;;;;;;;;;;;5113849;28;19908;-75
2024/04/04 14:33:30;;;;;;;;;;;;;;;;;;5114841;28;20416;-75
2024/04/04 14:35:55;;;;;;;;;;;;;;;;;;5113549;28;19915;-74
2024/04/04 14:38:21;;;;;;;;;;;;;;;;;;5114478;28;19907;-75
2024/04/04 14:40:48;;;;;;;;;;;;;;;;;;5114614;28;19907;-75
2024/04/04 14:43:14;;;;;;;;;;;;;;;;;;5113427;28;19918;-75
2024/04/04 14:45:40;;;;;;;;;;;;;;;;;;5113033;28;19908;-74
2024/04/04 14:48:06;;;;;;;;;;;;;;;;;;5114661;28;19953;-75
2024/04/04 14:50:32;;;;;;;;;;;;;;;;;;5114596;28;19908;-73
2024/04/04 14:52:58;;;;;;;;;;;;;;;;;;5114047;28;19907;-73
2024/04/04 14:55:24;;;;;;;;;;;;;;;;;;5114267;28;19999;-74
2024/04/04 14:57:50;;;;;;;;;;;;;;;;;;5114451;28;19931;-74
2024/04/04 15:00:16;;;;;;;;;;;;;;;;;;5114094;28;19907;-74
2024/04/04 15:02:43;;;;;;;;;;;;;;;;;;5114254;28;19915;-74
2024/04/04 15:05:09;;;;;;;;;;;;;;;;;;5114497;28;20310;-74
2024/04/04 15:07:34;;;;;;;;;;;;;;;;;;5114040;28;19911;-74
2024/04/04 15:10:00;;;;;;;;;;;;;;;;;;5113056;28;19907;-74
2024/04/04 15:12:27;;;;;;;;;;;;;;;;;;5112986;28;19907;-75
2024/04/04 15:14:53;;;;;;;;;;;;;;;;;;5113899;28;19914;-74
2024/04/04 15:17:19;;;;;;;;;;;;;;;;;;5114170;28;19994;-75
2024/04/04 15:19:45;;;;;;;;;;;;;;;;;;5113730;28;19912;-75
2024/04/04 15:22:10;;;;;;;;;;;;;;;;;;5095174;28;20441;-75
2024/04/04 15:24:36;;;;;;;;;;;;;;;;;;5092253;28;20409;-74
2024/04/04 15:27:02;;;;;;;;;;;;;;;;;;5093074;28;20261;-74
2024/04/04 15:29:29;;;;;;;;;;;;;;;;;;5093711;28;20339;-75
2024/04/04 15:31:55;;;;;;;;;;;;;;;;;;5092091;28;20261;-75
2024/04/04 15:34:21;;;;;;;;;;;;;;;;;;5093383;28;19953;-74
2024/04/04 15:36:47;;;;;;;;;;;;;;;;;;5092328;28;19909;-75
2024/04/04 15:39:13;;;;;;;;;;;;;;;;;;5092116;28;20304;-74
2024/04/04 15:41:39;;;;;;;;;;;;;;;;;;5093221;28;20327;-75
2024/04/04 15:44:05;;;;;;;;;;;;;;;;;;5093563;28;19981;-74
2024/04/04 15:46:31;;;;;;;;;;;;;;;;;;5093447;28;19994;-72
2024/04/04 15:48:57;;;;;;;;;;;;;;;;;;5093102;28;19908;-72
2024/04/04 15:51:24;;;;;;;;;;;;;;;;;;5092240;28;19915;-74
2024/04/04 15:53:50;;;;;;;;;;;;;;;;;;5092515;28;19995;-74
2024/04/04 15:56:16;;;;;;;;;;;;;;;;;;5091418;28;20081;-74
2024/04/04 15:58:43;;;;;;;;;;;;;;;;;;5092071;28;19912;-74
2024/04/04 16:01:09;;;;;;;;;;;;;;;;;;5091281;28;19912;-74
2024/04/04 16:03:35;;;;;;;;;;;;;;;;;;5090943;28;19912;-74
2024/04/04 16:06:02;;;;;;;;;;;;;;;;;;5091310;28;19915;-74
2024/04/04 16:08:28;;;;;;;;;;;;;;;;;;5092943;28;19908;-73
2024/04/04 16:10:53;;;;;;;;;;;;;;;;;;5094935;28;19908;-74
2024/04/04 16:13:19;;;;;;;;;;;;;;;;;;5093979;28;19908;-73
2024/04/04 16:15:45;;;;;;;;;;;;;;;;;;5097061;28;20003;-74
2024/04/04 16:18:12;;;;;;;;;;;;;;;;;;5096583;28;19908;-74
2024/04/04 16:20:37;;;;;;;;;;;;;;;;;;5095552;28;19915;-72
2024/04/04 16:23:03;;;;;;;;;;;;;;;;;;5096253;28;20276;-75
2024/04/04 16:25:29;;;;;;;;;;;;;;;;;;5096970;28;19909;-75
2024/04/04 16:27:55;;;;;;;;;;;;;;;;;;5095687;28;19972;-74
2024/04/04 16:30:21;;;;;;;;;;;;;;;;;;5096460;28;20272;-73
2024/04/04 16:32:48;;;;;;;;;;;;;;;;;;5095574;28;20276;-73
2024/04/04 16:35:14;;;;;;;;;;;;;;;;;;5096908;28;19912;-73
2024/04/04 16:37:40;;;;;;;;;;;;;;;;;;5096743;28;20280;-73
2024/04/04 16:40:06;;;;;;;;;;;;;;;;;;5096620;28;20279;-73
2024/04/04 16:42:32;;;;;;;;;;;;;;;;;;5096622;28;20359;-73
2024/04/04 16:44:59;;;;;;;;;;;;;;;;;;5096182;28;20322;-73
2024/04/04 16:47:24;;;;;;;;;;;;;;;;;;5096459;28;20002;-73
2024/04/04 16:52:19;;;;;;;;;;;;;;;;;;5152641;27;20006;-73
2024/04/04 16:55:45;;;;;;;;;;;;;;;;;;5112045;27;19916;-72
2024/04/04 17:00:07;;;;;;;;;;;;;;;;;;5090897;27;19912;-73
2024/04/04 17:02:33;;;;;;;;;;;;;;;;;;5091353;28;19912;-73
2024/04/04 17:04:59;;;;;;;;;;;;;;;;;;5091309;28;19915;-73
2024/04/04 17:10:57;;;;;;;;;;;;;;;;;;5091718;27;19923;-75
2024/04/04 17:13:23;;;;;;;;;;;;;;;;;;5089646;28;20003;-74
2024/04/04 17:16:17;;;;;;;;;;;;;;;;;;5071828;28;19923;-73
2024/04/04 17:19:39;;;;;;;;;;;;;;;;;;5091500;28;19912;-74
2024/04/04 17:22:05;;;;;;;;;;;;;;;;;;5091283;28;19919;-74
2024/04/04 17:28:43;;;;;;;;;;;;;;;;;;5112109;27;19920;-74
2024/04/04 17:31:09;;;;;;;;;;;;;;;;;;5111621;28;19955;-73
2024/04/04 17:33:35;;;;;;;;;;;;;;;;;;5111810;28;19908;-73
2024/04/04 17:36:01;;;;;;;;;;;;;;;;;;5110174;28;19915;-73
2024/04/04 17:38:28;;;;;;;;;;;;;;;;;;5111369;28;19973;-74
2024/04/04 17:42:22;;;;;;;;;;;;;;;;;;5090875;27;19916;-74
2024/04/04 17:44:48;;;;;;;;;;;;;;;;;;5091151;28;20379;-74
2024/04/04 17:47:14;;;;;;;;;;;;;;;;;;5091060;28;20003;-74
2024/04/04 17:52:19;;;;;;;;;;;;;;;;;;5091985;27;19991;-75
2024/04/04 17:54:45;;;;;;;;;;;;;;;;;;5089642;28;20416;-75
2024/04/04 17:58:03;;;;;;;;;;;;;;;;;;5091958;27;19919;-74